Time;durP1;ratioP1;P1;durP2;ratioP2;P2;SDS_P1;SDS_P2;PMS_P1;PMS_P2;Temp;Humidity;BMP_temperature;BMP_pressure;BME280_temperature;BME280_humidity;BME280_pressure;Samples;Min_cycle;Max_cycle;Signal;HPM_P1;HPM_P2
2023/03/22 00:01:09;;;;;;;8.38;5.50;;;;;;;;;;4973141;28;20065;-74
2023/03/22 00:03:36;;;;;;;9.13;4.82;;;;;;;;;;4991517;28;20033;-74
2023/03/22 00:06:02;;;;;;;7.40;4.47;;;;;;;;;;5010286;28;20026;-74
2023/03/22 00:08:28;;;;;;;7.35;5.05;;;;;;;;;;5009892;28;20025;-74
2023/03/22 00:10:54;;;;;;;12.38;5.32;;;;;;;;;;5008331;28;20030;-74
2023/03/22 00:13:20;;;;;;;10.00;5.20;;;;;;;;;;5001262;28;20025;-74
2023/03/22 00:15:47;;;;;;;9.85;5.35;;;;;;;;;;5010011;28;20391;-75
2023/03/22 00:18:14;;;;;;;7.50;5.18;;;;;;;;;;5009604;28;20050;-72
2023/03/22 00:20:46;;;;;;;8.43;5.30;;;;;;;;;;5009756;28;20500;-73
2023/03/22 00:23:12;;;;;;;8.30;5.10;;;;;;;;;;5010258;28;20037;-75
2023/03/22 00:25:38;;;;;;;8.57;5.75;;;;;;;;;;5010514;28;20071;-73
2023/03/22 00:28:04;;;;;;;8.07;5.90;;;;;;;;;;5009071;28;20045;-74
2023/03/22 00:30:30;;;;;;;8.88;5.20;;;;;;;;;;5009401;28;20487;-74
2023/03/22 00:32:56;;;;;;;11.10;6.35;;;;;;;;;;5009998;28;20079;-74
2023/03/22 00:35:22;;;;;;;10.70;5.53;;;;;;;;;;4992244;28;20034;-74
2023/03/22 00:37:50;;;;;;;11.45;6.15;;;;;;;;;;5008970;28;20029;-74
2023/03/22 00:40:16;;;;;;;11.05;5.90;;;;;;;;;;4991843;28;20381;-73
2023/03/22 00:42:42;;;;;;;11.73;6.03;;;;;;;;;;5009589;28;20438;-74
2023/03/22 00:45:10;;;;;;;9.63;5.85;;;;;;;;;;5009543;28;20075;-70
2023/03/22 00:47:36;;;;;;;10.88;5.95;;;;;;;;;;5008614;28;20095;-74
2023/03/22 00:50:03;;;;;;;10.63;5.95;;;;;;;;;;4991896;28;20099;-73
2023/03/22 00:52:29;;;;;;;11.60;6.32;;;;;;;;;;5009355;28;20458;-74
2023/03/22 00:54:55;;;;;;;7.45;5.15;;;;;;;;;;4991766;28;20095;-74
2023/03/22 00:57:21;;;;;;;11.95;6.30;;;;;;;;;;5009004;28;20030;-74
2023/03/22 00:59:48;;;;;;;11.88;5.43;;;;;;;;;;5008953;28;20049;-73
2023/03/22 01:02:14;;;;;;;11.90;5.50;;;;;;;;;;5009493;28;20053;-74
2023/03/22 01:04:45;;;;;;;8.88;5.47;;;;;;;;;;5009338;28;20499;-73
2023/03/22 01:07:16;;;;;;;6.70;5.10;;;;;;;;;;5008596;28;20026;-74
2023/03/22 01:09:43;;;;;;;10.52;6.00;;;;;;;;;;5009284;28;20034;-75
2023/03/22 01:12:10;;;;;;;9.00;5.28;;;;;;;;;;4997276;28;20046;-75
2023/03/22 01:14:36;;;;;;;7.75;5.70;;;;;;;;;;4989394;28;20030;-75
2023/03/22 01:17:02;;;;;;;8.93;5.30;;;;;;;;;;4971868;28;20234;-74
2023/03/22 01:19:29;;;;;;;8.73;6.15;;;;;;;;;;4989310;28;20578;-75
2023/03/22 01:21:56;;;;;;;7.45;5.07;;;;;;;;;;4989459;28;20027;-75
2023/03/22 01:24:22;;;;;;;9.55;5.45;;;;;;;;;;4989493;28;20034;-75
2023/03/22 01:26:48;;;;;;;9.32;5.40;;;;;;;;;;4989140;28;20027;-73
2023/03/22 01:29:14;;;;;;;10.98;5.95;;;;;;;;;;4988723;28;20022;-74
2023/03/22 01:31:41;;;;;;;9.20;6.22;;;;;;;;;;4971831;28;20037;-74
2023/03/22 01:34:07;;;;;;;10.45;5.55;;;;;;;;;;4989576;28;20037;-74
2023/03/22 01:36:33;;;;;;;13.23;6.63;;;;;;;;;;4971632;28;20027;-74
2023/03/22 01:38:59;;;;;;;7.75;5.72;;;;;;;;;;4988438;28;20022;-73
2023/03/22 01:41:25;;;;;;;7.78;5.55;;;;;;;;;;4971764;28;20023;-74
2023/03/22 01:44:20;;;;;;;11.80;6.50;;;;;;;;;;4989231;28;20019;-74
2023/03/22 01:46:47;;;;;;;10.95;5.50;;;;;;;;;;4993896;28;20110;-72
2023/03/22 01:49:31;;;;;;;9.98;5.03;;;;;;;;;;5007900;28;20479;-74
2023/03/22 01:52:00;;;;;;;6.85;4.72;;;;;;;;;;5008378;28;20032;-74
2023/03/22 01:54:26;;;;;;;9.77;5.53;;;;;;;;;;5008834;28;20037;-75
2023/03/22 01:56:52;;;;;;;7.20;5.05;;;;;;;;;;5008208;28;20105;-75
2023/03/22 01:59:19;;;;;;;9.50;4.90;;;;;;;;;;5007625;28;20113;-74
2023/03/22 02:01:45;;;;;;;12.63;4.75;;;;;;;;;;5008540;28;20026;-74
2023/03/22 02:04:14;;;;;;;7.70;4.82;;;;;;;;;;5008193;28;20544;-74
2023/03/22 02:06:40;;;;;;;12.40;5.88;;;;;;;;;;5008271;28;20050;-74
2023/03/22 02:09:08;;;;;;;10.77;4.70;;;;;;;;;;5007605;28;20022;-74
2023/03/22 02:11:37;;;;;;;9.95;5.10;;;;;;;;;;5002058;28;20041;-74
2023/03/22 02:14:24;;;;;;;8.55;5.45;;;;;;;;;;4992409;28;20034;-74
2023/03/22 02:16:50;;;;;;;7.22;5.28;;;;;;;;;;4992045;28;20113;-74
2023/03/22 02:19:18;;;;;;;6.97;4.90;;;;;;;;;;4991782;28;20060;-74
2023/03/22 02:21:47;;;;;;;6.40;4.90;;;;;;;;;;4974702;28;20038;-74
2023/03/22 02:24:19;;;;;;;11.07;4.97;;;;;;;;;;4992521;28;20023;-74
2023/03/22 02:26:45;;;;;;;7.45;4.97;;;;;;;;;;4974584;28;20365;-73
2023/03/22 02:29:11;;;;;;;8.20;5.40;;;;;;;;;;4991377;28;20063;-74
2023/03/22 02:31:40;;;;;;;11.05;5.03;;;;;;;;;;4991770;28;20450;-73
2023/03/22 02:34:15;;;;;;;6.25;4.22;;;;;;;;;;4992309;28;20403;-73
2023/03/22 02:36:41;;;;;;;7.00;5.22;;;;;;;;;;4991792;28;20480;-74
2023/03/22 02:39:13;;;;;;;9.00;4.40;;;;;;;;;;4991090;28;20076;-74
2023/03/22 02:41:57;;;;;;;6.05;4.22;;;;;;;;;;4991604;28;20037;-74
2023/03/22 02:44:24;;;;;;;6.03;4.50;;;;;;;;;;4992005;28;20050;-74
2023/03/22 02:47:01;;;;;;;6.63;4.68;;;;;;;;;;4997215;28;20515;-74
2023/03/22 02:49:43;;;;;;;6.68;4.50;;;;;;;;;;5010992;28;20026;-74
2023/03/22 02:52:16;;;;;;;9.40;5.05;;;;;;;;;;4993542;28;20037;-74
2023/03/22 02:54:48;;;;;;;8.00;4.65;;;;;;;;;;5011254;28;20109;-74
2023/03/22 02:57:22;;;;;;;8.75;4.65;;;;;;;;;;4993451;28;20121;-74
2023/03/22 02:59:49;;;;;;;9.07;4.75;;;;;;;;;;5011303;28;20048;-74
2023/03/22 03:02:18;;;;;;;8.65;5.80;;;;;;;;;;5011366;28;20486;-73
2023/03/22 03:04:47;;;;;;;7.65;5.38;;;;;;;;;;5010967;28;20030;-73
2023/03/22 03:07:15;;;;;;;9.25;5.07;;;;;;;;;;5010615;28;20034;-72
2023/03/22 03:09:42;;;;;;;7.60;4.75;;;;;;;;;;5011027;28;20364;-72
2023/03/22 03:12:13;;;;;;;7.55;4.80;;;;;;;;;;5002675;28;20030;-72
2023/03/22 03:14:39;;;;;;;6.90;4.25;;;;;;;;;;4991631;28;20553;-73
2023/03/22 03:17:17;;;;;;;6.85;4.07;;;;;;;;;;4973723;28;20052;-73
2023/03/22 03:19:57;;;;;;;6.65;4.25;;;;;;;;;;4974524;28;20389;-73
2023/03/22 03:22:35;;;;;;;5.72;3.95;;;;;;;;;;4992049;28;20034;-74
2023/03/22 03:25:20;;;;;;;7.20;4.45;;;;;;;;;;4991645;28;20029;-75
2023/03/22 03:28:07;;;;;;;6.93;4.28;;;;;;;;;;4990691;28;20033;-74
2023/03/22 03:30:39;;;;;;;6.65;4.30;;;;;;;;;;4991119;28;20031;-75
2023/03/22 03:33:12;;;;;;;9.20;4.78;;;;;;;;;;4974585;28;20019;-75
2023/03/22 03:35:40;;;;;;;9.73;4.28;;;;;;;;;;4991682;28;20049;-75
2023/03/22 03:38:09;;;;;;;8.45;4.03;;;;;;;;;;4990402;28;20034;-73
2023/03/22 03:40:43;;;;;;;6.80;4.15;;;;;;;;;;4997469;28;20038;-73
2023/03/22 03:43:10;;;;;;;7.25;3.95;;;;;;;;;;5002842;28;20090;-74
2023/03/22 03:45:36;;;;;;;7.32;4.43;;;;;;;;;;4981520;28;20034;-74
2023/03/22 03:48:05;;;;;;;7.88;4.32;;;;;;;;;;5011547;28;20104;-73
2023/03/22 03:50:31;;;;;;;7.25;4.50;;;;;;;;;;5010280;28;20488;-73
2023/03/22 03:52:58;;;;;;;8.68;5.13;;;;;;;;;;4992975;28;20029;-74
2023/03/22 03:55:26;;;;;;;8.27;5.72;;;;;;;;;;5010619;28;20018;-74
2023/03/22 03:57:52;;;;;;;10.48;5.38;;;;;;;;;;4978626;28;20402;-75
2023/03/22 04:00:18;;;;;;;9.77;4.95;;;;;;;;;;4990689;28;20026;-75
2023/03/22 04:02:44;;;;;;;9.95;5.07;;;;;;;;;;4990914;28;20026;-75
2023/03/22 04:05:11;;;;;;;7.53;5.07;;;;;;;;;;4990611;28;20026;-75
2023/03/22 04:07:37;;;;;;;5.43;4.50;;;;;;;;;;4990027;28;20156;-75
2023/03/22 04:10:04;;;;;;;6.80;4.50;;;;;;;;;;4990511;28;20098;-74
2023/03/22 04:12:30;;;;;;;8.85;5.75;;;;;;;;;;4990597;28;20018;-74
2023/03/22 04:14:56;;;;;;;7.75;5.00;;;;;;;;;;4990246;28;20060;-72
2023/03/22 04:17:23;;;;;;;6.93;5.35;;;;;;;;;;4989821;28;20879;-74
2023/03/22 04:19:55;;;;;;;8.40;5.00;;;;;;;;;;4990634;28;20023;-73
2023/03/22 04:22:21;;;;;;;9.45;5.45;;;;;;;;;;4990428;28;20022;-73
2023/03/22 04:24:48;;;;;;;10.05;6.13;;;;;;;;;;4990370;28;20014;-73
2023/03/22 04:27:18;;;;;;;7.85;5.50;;;;;;;;;;4989719;28;20019;-72
2023/03/22 04:29:47;;;;;;;8.82;4.88;;;;;;;;;;4990120;28;20027;-74
2023/03/22 04:32:15;;;;;;;9.18;5.63;;;;;;;;;;4989813;28;20113;-72
2023/03/22 04:34:41;;;;;;;9.02;6.18;;;;;;;;;;4989466;28;20058;-74
2023/03/22 04:37:07;;;;;;;8.02;5.18;;;;;;;;;;4989576;28;20031;-71
2023/03/22 04:39:33;;;;;;;8.05;4.80;;;;;;;;;;4972619;28;20121;-73
2023/03/22 04:41:59;;;;;;;8.27;5.20;;;;;;;;;;4996168;28;20116;-74
2023/03/22 04:44:25;;;;;;;14.00;6.60;;;;;;;;;;5009520;28;20113;-74
2023/03/22 04:46:51;;;;;;;8.88;5.43;;;;;;;;;;5003845;28;20030;-74
2023/03/22 04:49:17;;;;;;;9.30;5.05;;;;;;;;;;4989291;28;20026;-74
2023/03/22 04:51:44;;;;;;;7.00;5.07;;;;;;;;;;4989976;28;20037;-74
2023/03/22 04:54:10;;;;;;;8.13;5.10;;;;;;;;;;4990390;28;20415;-75
2023/03/22 04:56:37;;;;;;;6.90;5.00;;;;;;;;;;5005276;28;20034;-75
2023/03/22 04:59:02;;;;;;;7.38;5.50;;;;;;;;;;5008791;28;20105;-75
2023/03/22 05:01:29;;;;;;;9.82;6.03;;;;;;;;;;5009360;28;20459;-75
2023/03/22 05:03:55;;;;;;;7.82;5.57;;;;;;;;;;5009335;28;20026;-74
2023/03/22 05:06:21;;;;;;;11.43;6.10;;;;;;;;;;5009336;28;20061;-75
2023/03/22 05:08:47;;;;;;;7.88;5.30;;;;;;;;;;5008378;28;20114;-75
2023/03/22 05:11:15;;;;;;;8.45;5.55;;;;;;;;;;5009171;28;20101;-72
2023/03/22 05:13:41;;;;;;;6.80;5.18;;;;;;;;;;4989550;28;20030;-74
2023/03/22 05:16:07;;;;;;;9.80;6.20;;;;;;;;;;4989774;28;20506;-73
2023/03/22 05:18:33;;;;;;;10.40;5.50;;;;;;;;;;4971265;28;20058;-73
2023/03/22 05:21:02;;;;;;;8.52;5.57;;;;;;;;;;4989753;28;20026;-75
2023/03/22 05:23:29;;;;;;;7.10;5.32;;;;;;;;;;4989566;28;20067;-74
2023/03/22 05:25:57;;;;;;;9.15;5.72;;;;;;;;;;4989638;28;20050;-73
2023/03/22 05:28:23;;;;;;;7.85;5.50;;;;;;;;;;4988832;28;20037;-73
2023/03/22 05:30:50;;;;;;;9.90;6.05;;;;;;;;;;4990369;28;20473;-74
2023/03/22 05:33:23;;;;;;;9.05;5.43;;;;;;;;;;4989855;28;20057;-74
2023/03/22 05:35:49;;;;;;;8.05;5.18;;;;;;;;;;4989661;28;20034;-75
2023/03/22 05:38:15;;;;;;;8.68;5.50;;;;;;;;;;4989466;28;20472;-77
2023/03/22 05:40:42;;;;;;;9.52;5.32;;;;;;;;;;4989744;28;20088;-74
2023/03/22 05:43:08;;;;;;;8.52;5.53;;;;;;;;;;4989748;28;20408;-75
2023/03/22 05:45:35;;;;;;;9.82;5.55;;;;;;;;;;4971680;28;20430;-74
2023/03/22 05:48:01;;;;;;;6.55;5.38;;;;;;;;;;5003900;28;20030;-74
2023/03/22 05:50:27;;;;;;;8.38;5.00;;;;;;;;;;5008797;28;20515;-74
2023/03/22 05:52:53;;;;;;;6.28;4.80;;;;;;;;;;5008798;28;20041;-75
2023/03/22 05:55:21;;;;;;;9.10;5.05;;;;;;;;;;5008547;28;20034;-74
2023/03/22 05:57:50;;;;;;;10.82;5.20;;;;;;;;;;5007989;28;20053;-73
2023/03/22 06:00:17;;;;;;;9.98;4.85;;;;;;;;;;4990782;28;20121;-74
2023/03/22 06:02:47;;;;;;;13.27;5.57;;;;;;;;;;5008668;28;20022;-74
2023/03/22 06:05:14;;;;;;;10.05;5.15;;;;;;;;;;5008468;28;20026;-76
2023/03/22 06:07:40;;;;;;;13.10;5.32;;;;;;;;;;5008318;28;20026;-73
2023/03/22 06:10:07;;;;;;;6.78;4.80;;;;;;;;;;5008519;28;20048;-73
2023/03/22 06:12:33;;;;;;;8.50;5.22;;;;;;;;;;4990997;28;20026;-74
2023/03/22 06:14:59;;;;;;;9.43;5.72;;;;;;;;;;5008365;28;20032;-74
2023/03/22 06:17:26;;;;;;;9.77;5.55;;;;;;;;;;5007716;28;20840;-75
2023/03/22 06:19:53;;;;;;;10.40;5.90;;;;;;;;;;5007998;28;20033;-75
2023/03/22 06:22:19;;;;;;;5.95;4.85;;;;;;;;;;5008288;28;20029;-74
2023/03/22 06:24:46;;;;;;;7.60;5.13;;;;;;;;;;5007535;28;20025;-74
2023/03/22 06:27:12;;;;;;;11.55;5.50;;;;;;;;;;5007684;28;20033;-74
2023/03/22 06:29:38;;;;;;;8.25;5.05;;;;;;;;;;5008264;28;20492;-74
2023/03/22 06:32:05;;;;;;;6.75;5.25;;;;;;;;;;5008300;28;20041;-74
2023/03/22 06:34:31;;;;;;;8.27;5.97;;;;;;;;;;5008744;28;20036;-74
2023/03/22 06:36:57;;;;;;;8.88;5.07;;;;;;;;;;5008341;28;20083;-74
2023/03/22 06:39:23;;;;;;;7.00;4.55;;;;;;;;;;5005315;28;20030;-75
2023/03/22 06:41:49;;;;;;;7.22;5.40;;;;;;;;;;5007716;28;20033;-74
2023/03/22 06:44:15;;;;;;;7.35;5.13;;;;;;;;;;5006559;28;20049;-73
2023/03/22 06:46:41;;;;;;;7.80;4.97;;;;;;;;;;5007834;28;20026;-74
2023/03/22 06:49:07;;;;;;;7.80;5.40;;;;;;;;;;5007688;28;20083;-75
2023/03/22 06:51:34;;;;;;;8.10;4.70;;;;;;;;;;4990247;28;20084;-73
2023/03/22 06:54:00;;;;;;;7.18;5.07;;;;;;;;;;5007836;28;20051;-75
2023/03/22 06:56:26;;;;;;;9.50;5.05;;;;;;;;;;5007596;28;20384;-74
2023/03/22 06:58:53;;;;;;;7.80;5.20;;;;;;;;;;5009006;28;20041;-77
2023/03/22 07:01:20;;;;;;;8.15;5.68;;;;;;;;;;4993745;28;20048;-76
2023/03/22 07:03:46;;;;;;;11.60;5.07;;;;;;;;;;5011231;28;20091;-78
2023/03/22 07:06:12;;;;;;;6.03;4.68;;;;;;;;;;5011492;28;20018;-76
2023/03/22 07:08:39;;;;;;;7.28;4.55;;;;;;;;;;5010723;28;20030;-77
2023/03/22 07:11:05;;;;;;;8.10;5.07;;;;;;;;;;5011545;28;20507;-75
2023/03/22 07:13:31;;;;;;;12.18;5.13;;;;;;;;;;5011442;28;20051;-76
2023/03/22 07:15:59;;;;;;;7.85;5.78;;;;;;;;;;5011105;28;20091;-76
2023/03/22 07:18:25;;;;;;;7.25;4.65;;;;;;;;;;5010741;28;20029;-77
2023/03/22 07:20:51;;;;;;;7.97;4.80;;;;;;;;;;5009772;28;20062;-77
2023/03/22 07:23:17;;;;;;;8.60;4.97;;;;;;;;;;5010570;28;20404;-77
2023/03/22 07:25:44;;;;;;;8.00;4.85;;;;;;;;;;5009259;28;20022;-78
2023/03/22 07:31:02;;;;;;;11.20;5.25;;;;;;;;;;5009393;28;20435;-78
2023/03/22 07:33:29;;;;;;;9.23;5.68;;;;;;;;;;5010787;28;20431;-78
2023/03/22 07:35:55;;;;;;;9.63;5.13;;;;;;;;;;5010385;28;20037;-79
2023/03/22 07:38:21;;;;;;;8.23;4.70;;;;;;;;;;5010095;28;20468;-79
2023/03/22 07:40:49;;;;;;;7.80;4.78;;;;;;;;;;5011165;28;20034;-78
2023/03/22 07:43:15;;;;;;;6.28;4.63;;;;;;;;;;5010710;28;20030;-78
2023/03/22 07:45:41;;;;;;;5.95;4.60;;;;;;;;;;5010517;28;20467;-80
2023/03/22 07:48:10;;;;;;;11.30;5.32;;;;;;;;;;4981867;28;20088;-78
2023/03/22 07:50:36;;;;;;;14.35;5.35;;;;;;;;;;4995437;28;20015;-78
2023/03/22 07:53:02;;;;;;;11.20;4.28;;;;;;;;;;5002493;28;20029;-78
2023/03/22 07:55:29;;;;;;;12.10;4.97;;;;;;;;;;5010310;28;20488;-77
2023/03/22 07:57:55;;;;;;;9.85;4.57;;;;;;;;;;4992055;28;20026;-78
2023/03/22 08:00:21;;;;;;;8.50;4.28;;;;;;;;;;5010512;28;20555;-78
2023/03/22 08:02:47;;;;;;;8.52;4.45;;;;;;;;;;5010679;28;20396;-78
2023/03/22 08:05:14;;;;;;;5.70;4.35;;;;;;;;;;4992801;28;20021;-79
2023/03/22 08:07:41;;;;;;;7.50;4.57;;;;;;;;;;5009988;28;20416;-77
2023/03/22 08:10:07;;;;;;;6.00;3.90;;;;;;;;;;5009170;28;20557;-79
2023/03/22 08:12:33;;;;;;;6.93;4.50;;;;;;;;;;5010775;28;20026;-74
2023/03/22 08:15:00;;;;;;;9.15;4.35;;;;;;;;;;5010936;28;20071;-76
2023/03/22 08:17:26;;;;;;;8.57;3.67;;;;;;;;;;5009975;28;20033;-78
2023/03/22 08:19:55;;;;;;;6.35;3.97;;;;;;;;;;5013637;28;20030;-77
2023/03/22 08:22:24;;;;;;;7.78;4.53;;;;;;;;;;5012621;28;20026;-77
2023/03/22 08:24:50;;;;;;;5.90;3.20;;;;;;;;;;5013775;28;20488;-77
2023/03/22 08:27:17;;;;;;;6.00;3.40;;;;;;;;;;4994795;28;20442;-77
2023/03/22 08:29:44;;;;;;;5.90;3.42;;;;;;;;;;5012067;28;20034;-77
2023/03/22 08:32:10;;;;;;;5.93;3.30;;;;;;;;;;5013755;28;20038;-77
2023/03/22 08:34:40;;;;;;;8.20;3.33;;;;;;;;;;5010051;28;20025;-76
2023/03/22 08:37:06;;;;;;;6.85;3.25;;;;;;;;;;5009346;28;20033;-78
2023/03/22 08:39:33;;;;;;;10.07;2.92;;;;;;;;;;5009860;28;20030;-77
2023/03/22 08:41:59;;;;;;;4.60;2.80;;;;;;;;;;5010103;28;20049;-79
2023/03/22 08:44:25;;;;;;;4.38;2.58;;;;;;;;;;4992619;28;20113;-79
2023/03/22 08:46:51;;;;;;;4.55;2.47;;;;;;;;;;5009764;28;20034;-77
2023/03/22 08:49:17;;;;;;;5.43;2.50;;;;;;;;;;5009178;28;20018;-77
2023/03/22 08:51:43;;;;;;;4.18;2.30;;;;;;;;;;5009736;28;20495;-78
2023/03/22 08:54:09;;;;;;;5.95;2.67;;;;;;;;;;5010370;28;20037;-77
2023/03/22 08:56:36;;;;;;;4.82;2.50;;;;;;;;;;5010676;28;20014;-78
2023/03/22 08:59:03;;;;;;;4.75;2.55;;;;;;;;;;5010036;28;20034;-77
2023/03/22 09:01:30;;;;;;;4.00;2.50;;;;;;;;;;5012221;28;20032;-79
2023/03/22 09:03:56;;;;;;;4.00;2.22;;;;;;;;;;5000995;28;20062;-77
2023/03/22 09:06:22;;;;;;;5.47;2.40;;;;;;;;;;5024084;28;20022;-76
2023/03/22 09:08:50;;;;;;;4.95;2.08;;;;;;;;;;5003126;28;20036;-77
2023/03/22 09:11:17;;;;;;;2.17;1.73;;;;;;;;;;5023388;28;20026;-78
2023/03/22 09:13:43;;;;;;;4.22;1.65;;;;;;;;;;5024242;28;20075;-77
2023/03/22 09:16:09;;;;;;;4.63;1.73;;;;;;;;;;5023733;28;20060;-76
2023/03/22 09:18:36;;;;;;;2.28;1.42;;;;;;;;;;5022750;28;20045;-77
2023/03/22 09:21:03;;;;;;;4.93;1.40;;;;;;;;;;5004917;28;20026;-77
2023/03/22 09:23:31;;;;;;;4.32;2.13;;;;;;;;;;5019064;28;20112;-77
2023/03/22 09:25:59;;;;;;;2.50;1.40;;;;;;;;;;5015641;28;20026;-77
2023/03/22 09:28:25;;;;;;;3.30;1.45;;;;;;;;;;4994377;28;20108;-78
2023/03/22 09:30:51;;;;;;;2.30;1.40;;;;;;;;;;5014149;28;20034;-78
2023/03/22 09:33:17;;;;;;;3.60;1.55;;;;;;;;;;5013179;28;20433;-78
2023/03/22 09:35:43;;;;;;;3.63;1.27;;;;;;;;;;5009165;28;20026;-78
2023/03/22 09:38:11;;;;;;;4.68;2.00;;;;;;;;;;5008855;28;20056;-78
2023/03/22 09:40:38;;;;;;;3.72;1.60;;;;;;;;;;4991547;28;20030;-77
2023/03/22 09:43:05;;;;;;;4.43;1.90;;;;;;;;;;4991529;28;20026;-77
2023/03/22 09:45:36;;;;;;;5.28;2.10;;;;;;;;;;4991759;28;20438;-77
2023/03/22 09:48:02;;;;;;;;;;;;;;;;;;5008559;28;20034;-76
2023/03/22 09:50:30;;;;;;;2.75;1.80;;;;;;;;;;5009039;28;19916;-77
2023/03/22 09:52:57;;;;;;;3.28;1.20;;;;;;;;;;5008671;28;20022;-76
2023/03/22 09:55:43;;;;;;;2.35;1.13;;;;;;;;;;4991462;28;20507;-76
2023/03/22 09:58:24;;;;;;;2.75;1.10;;;;;;;;;;5008156;28;20034;-77
2023/03/22 10:01:00;;;;;;;3.28;1.48;;;;;;;;;;4989474;28;20035;-77
2023/03/22 10:03:44;;;;;;;2.25;1.30;;;;;;;;;;4988961;28;20050;-76
2023/03/22 10:06:29;;;;;;;2.80;1.40;;;;;;;;;;4989085;28;20039;-77
2023/03/22 10:09:12;;;;;;;2.95;0.93;;;;;;;;;;4988408;28;20014;-77
2023/03/22 10:11:46;;;;;;;3.95;1.77;;;;;;;;;;4988884;28;20027;-77
2023/03/22 10:14:15;;;;;;;4.35;1.75;;;;;;;;;;4989072;28;20113;-78
2023/03/22 10:16:41;;;;;;;5.53;1.30;;;;;;;;;;4989157;28;20027;-77
2023/03/22 10:19:12;;;;;;;3.45;1.23;;;;;;;;;;4988200;28;20477;-77
2023/03/22 10:21:38;;;;;;;;;;;;;;;;;;4989197;28;20034;-77
2023/03/22 10:24:27;;;;;;;2.88;0.90;;;;;;;;;;4989073;28;20389;-77
2023/03/22 10:26:54;;;;;;;2.95;0.90;;;;;;;;;;4991616;28;20445;-77
2023/03/22 10:29:30;;;;;;;2.28;0.80;;;;;;;;;;4988292;28;20019;-78
2023/03/22 10:31:57;;;;;;;2.20;0.95;;;;;;;;;;4988767;28;20247;-77
2023/03/22 10:34:28;;;;;;;2.05;0.70;;;;;;;;;;4991825;28;20035;-75
2023/03/22 10:36:55;;;;;;;1.90;1.05;;;;;;;;;;4992250;28;20551;-77
2023/03/22 10:39:48;;;;;;;5.50;1.40;;;;;;;;;;4991316;28;20030;-77
2023/03/22 10:42:16;;;;;;;4.65;1.50;;;;;;;;;;4992688;28;20038;-77
2023/03/22 10:44:47;;;;;;;2.63;1.63;;;;;;;;;;4992784;28;20022;-77
2023/03/22 10:47:16;;;;;;;2.83;1.08;;;;;;;;;;5000402;28;20109;-77
2023/03/22 10:49:45;;;;;;;3.00;1.05;;;;;;;;;;5011667;28;20377;-77
2023/03/22 10:52:19;;;;;;;2.38;1.13;;;;;;;;;;4994192;28;20125;-77
2023/03/22 10:54:45;;;;;;;1.92;0.60;;;;;;;;;;4994079;28;20141;-79
2023/03/22 10:57:11;;;;;;;2.45;1.02;;;;;;;;;;5010825;28;20075;-78
2023/03/22 10:59:43;;;;;;;3.08;0.90;;;;;;;;;;4993625;28;20026;-77
2023/03/22 11:02:24;;;;;;;2.85;1.02;;;;;;;;;;5011360;28;20033;-77
2023/03/22 11:04:55;;;;;;;2.28;1.20;;;;;;;;;;5011146;28;20030;-77
2023/03/22 11:07:35;;;;;;;1.50;1.13;;;;;;;;;;4993079;28;20361;-78
2023/03/22 11:10:07;;;;;;;1.85;1.40;;;;;;;;;;5011002;28;20171;-78
2023/03/22 11:12:35;;;;;;;2.28;1.20;;;;;;;;;;5011624;28;20030;-78
2023/03/22 11:15:02;;;;;;;2.00;1.20;;;;;;;;;;5011292;28;20029;-79
2023/03/22 11:17:28;;;;;;;2.95;0.70;;;;;;;;;;5010730;28;20064;-77
2023/03/22 11:20:08;;;;;;;4.15;0.95;;;;;;;;;;5011196;28;20041;-76
2023/03/22 11:22:37;;;;;;;1.73;0.80;;;;;;;;;;5011106;28;20364;-77
2023/03/22 11:25:06;;;;;;;2.50;0.98;;;;;;;;;;5011306;28;20045;-77
2023/03/22 11:27:33;;;;;;;3.53;0.95;;;;;;;;;;5010120;28;20014;-77
2023/03/22 11:30:07;;;;;;;3.30;1.13;;;;;;;;;;5011087;28;20110;-77
2023/03/22 11:32:37;;;;;;;0.85;0.68;;;;;;;;;;5011991;28;20041;-77
2023/03/22 11:35:12;;;;;;;2.28;0.90;;;;;;;;;;5010925;28;20036;-77
2023/03/22 11:37:46;;;;;;;6.38;1.42;;;;;;;;;;5010233;28;20041;-78
2023/03/22 11:40:15;;;;;;;4.13;1.00;;;;;;;;;;5011571;28;20486;-78
2023/03/22 11:42:41;;;;;;;2.92;1.20;;;;;;;;;;4993629;28;20132;-76
2023/03/22 11:45:10;;;;;;;3.28;0.93;;;;;;;;;;5010735;28;20026;-77
2023/03/22 11:47:40;;;;;;;2.10;0.95;;;;;;;;;;5009945;28;20091;-78
2023/03/22 11:50:08;;;;;;;6.60;0.90;;;;;;;;;;4993383;28;20022;-78
2023/03/22 11:52:34;;;;;;;4.78;1.17;;;;;;;;;;4992906;28;20287;-78
2023/03/22 11:55:01;;;;;;;2.13;0.77;;;;;;;;;;5010828;28;20030;-78
2023/03/22 11:57:28;;;;;;;4.93;1.02;;;;;;;;;;5009839;28;20030;-78
2023/03/22 12:00:05;;;;;;;5.93;0.80;;;;;;;;;;5010315;28;20034;-78
2023/03/22 12:02:37;;;;;;;1.10;0.63;;;;;;;;;;5010831;28;20029;-77
2023/03/22 12:05:26;;;;;;;2.47;0.75;;;;;;;;;;5010341;28;20036;-77
2023/03/22 12:07:54;;;;;;;2.05;0.98;;;;;;;;;;5010159;28;20030;-77
2023/03/22 12:10:32;;;;;;;1.02;0.80;;;;;;;;;;5010431;28;20022;-76
2023/03/22 12:13:01;;;;;;;3.00;0.75;;;;;;;;;;4992941;28;20079;-77
2023/03/22 12:15:34;;;;;;;3.38;1.17;;;;;;;;;;5010225;28;20050;-76
2023/03/22 12:18:00;;;;;;;2.72;0.88;;;;;;;;;;5009751;28;20022;-78
2023/03/22 12:20:29;;;;;;;1.20;0.80;;;;;;;;;;4992981;28;20026;-78
2023/03/22 12:22:56;;;;;;;2.42;1.00;;;;;;;;;;5010397;28;20112;-77
2023/03/22 12:25:28;;;;;;;2.10;1.15;;;;;;;;;;5011082;28;20075;-78
2023/03/22 12:27:56;;;;;;;3.75;1.10;;;;;;;;;;5010247;28;20100;-77
2023/03/22 12:30:25;;;;;;;1.55;0.85;;;;;;;;;;5010833;28;20038;-79
2023/03/22 12:32:59;;;;;;;2.15;0.88;;;;;;;;;;5010361;28;20162;-77
2023/03/22 12:35:26;;;;;;;3.25;1.00;;;;;;;;;;5010165;28;20034;-79
2023/03/22 12:37:55;;;;;;;0.90;0.80;;;;;;;;;;5010389;28;20018;-77
2023/03/22 12:40:23;;;;;;;2.25;1.20;;;;;;;;;;5009987;28;20290;-77
2023/03/22 12:42:54;;;;;;;1.77;0.98;;;;;;;;;;5007430;28;20026;-77
2023/03/22 12:45:22;;;;;;;1.92;1.15;;;;;;;;;;5006823;28;20052;-77
2023/03/22 12:48:11;;;;;;;1.45;0.80;;;;;;;;;;4999758;28;20030;-77
2023/03/22 12:50:57;;;;;;;1.23;0.73;;;;;;;;;;4977911;28;20485;-77
2023/03/22 12:53:26;;;;;;;3.25;1.15;;;;;;;;;;4990467;28;20022;-77
2023/03/22 12:55:54;;;;;;;6.43;1.23;;;;;;;;;;4991881;28;20464;-78
2023/03/22 12:58:21;;;;;;;3.03;1.13;;;;;;;;;;5008949;28;20407;-76
2023/03/22 13:00:50;;;;;;;1.63;1.10;;;;;;;;;;5008058;28;20425;-76
2023/03/22 13:03:16;;;;;;;1.40;1.00;;;;;;;;;;5008717;28;20040;-75
2023/03/22 13:05:44;;;;;;;1.02;0.80;;;;;;;;;;5008561;28;20028;-75
2023/03/22 13:08:10;;;;;;;2.65;1.27;;;;;;;;;;5006748;28;20026;-75
2023/03/22 13:10:38;;;;;;;3.03;1.13;;;;;;;;;;5007974;28;20029;-75
2023/03/22 13:13:06;;;;;;;4.53;1.17;;;;;;;;;;5008072;28;20618;-75
2023/03/22 13:15:34;;;;;;;0.90;0.70;;;;;;;;;;5007886;28;20361;-76
2023/03/22 13:18:00;;;;;;;6.00;1.15;;;;;;;;;;5006614;28;20026;-76
2023/03/22 13:20:29;;;;;;;2.97;1.08;;;;;;;;;;5008531;28;20155;-77
2023/03/22 13:22:59;;;;;;;2.17;1.35;;;;;;;;;;5009645;28;20041;-76
2023/03/22 13:25:28;;;;;;;2.83;1.23;;;;;;;;;;5009433;28;20030;-76
2023/03/22 13:27:56;;;;;;;3.15;1.33;;;;;;;;;;5009006;28;20167;-75
2023/03/22 13:30:22;;;;;;;3.90;1.10;;;;;;;;;;5009064;28;20060;-74
2023/03/22 13:32:54;;;;;;;2.90;1.25;;;;;;;;;;5009644;28;20022;-75
2023/03/22 13:35:23;;;;;;;3.25;0.65;;;;;;;;;;4992226;28;20045;-74
2023/03/22 13:37:50;;;;;;;2.53;1.15;;;;;;;;;;5008984;28;20534;-77
2023/03/22 13:40:25;;;;;;;1.45;0.93;;;;;;;;;;4990270;28;20418;-77
2023/03/22 13:42:52;;;;;;;1.00;0.63;;;;;;;;;;4992192;28;20069;-77
2023/03/22 13:45:32;;;;;;;2.85;0.80;;;;;;;;;;5008543;28;20060;-76
2023/03/22 13:48:21;;;;;;;1.85;1.00;;;;;;;;;;5006924;28;20104;-78
2023/03/22 13:50:47;;;;;;;3.10;1.17;;;;;;;;;;5008456;28;20061;-78
2023/03/22 13:53:15;;;;;;;4.63;0.80;;;;;;;;;;5008995;28;20033;-77
2023/03/22 13:55:50;;;;;;;2.65;1.08;;;;;;;;;;4989552;28;20048;-77
2023/03/22 13:58:28;;;;;;;1.52;1.10;;;;;;;;;;5004174;28;20087;-74
2023/03/22 14:00:55;;;;;;;1.85;1.05;;;;;;;;;;5008423;28;20030;-74
2023/03/22 14:03:44;;;;;;;3.38;0.80;;;;;;;;;;4990730;28;20033;-77
2023/03/22 14:06:32;;;;;;;1.77;0.63;;;;;;;;;;5001918;28;20166;-75
2023/03/22 14:09:03;;;;;;;2.85;0.95;;;;;;;;;;4987000;28;20126;-77
2023/03/22 14:11:37;;;;;;;2.85;1.10;;;;;;;;;;4988138;28;20514;-76
2023/03/22 14:14:06;;;;;;;1.33;0.88;;;;;;;;;;4988603;28;20031;-75
2023/03/22 14:16:35;;;;;;;6.30;1.17;;;;;;;;;;4988927;28;20023;-77
2023/03/22 14:19:02;;;;;;;1.70;0.70;;;;;;;;;;4987140;28;20026;-76
2023/03/22 14:21:31;;;;;;;3.72;1.10;;;;;;;;;;4987189;28;20053;-76
2023/03/22 14:23:59;;;;;;;4.70;1.15;;;;;;;;;;4988642;28;20222;-77
2023/03/22 14:26:26;;;;;;;1.80;1.10;;;;;;;;;;4989157;28;20059;-76
2023/03/22 14:28:55;;;;;;;2.63;0.88;;;;;;;;;;4988756;28;20037;-76
2023/03/22 14:31:31;;;;;;;4.65;1.20;;;;;;;;;;4994862;28;20042;-77
2023/03/22 14:34:04;;;;;;;2.20;1.00;;;;;;;;;;5006520;28;20041;-76
2023/03/22 14:36:36;;;;;;;1.98;1.10;;;;;;;;;;5006149;28;20035;-75
2023/03/22 14:39:07;;;;;;;1.58;0.90;;;;;;;;;;5003961;28;20061;-76
2023/03/22 14:41:34;;;;;;;4.05;1.00;;;;;;;;;;4991604;28;20499;-75
2023/03/22 14:44:01;;;;;;;2.58;1.17;;;;;;;;;;4990805;28;20480;-76
2023/03/22 14:46:32;;;;;;;1.95;1.13;;;;;;;;;;4989844;28;20618;-77
2023/03/22 14:48:59;;;;;;;2.25;1.13;;;;;;;;;;4989293;28;20026;-77
2023/03/22 14:51:31;;;;;;;2.47;0.93;;;;;;;;;;4989669;28;20059;-77
2023/03/22 14:53:56;;;;;;;;;;;;;;;;;;4989220;28;20099;-77
2023/03/22 14:56:28;;;;;;;1.92;0.88;;;;;;;;;;4989234;28;20063;-77